Terminal Aerodrome Forecast
Issued by NWS Topeka, KS

Home | Current Version | Previous Version | Text Only | Print | Product List | Glossary On
Versions: 1 2 3 4 5 6 7 8 9 10 11 12 13 14 15 16 17 18 19 20 21
000
FTUS43 KTOP 210500
TAFTOP
TAF
KTOP 210520Z 2106/2206 00000KT P6SM MIFG SKC
     FM211000 00000KT 3SM BR SKC
      TEMPO 2111/2113 1/2SM FG SCT002
     FM211400 13003KT P6SM SKC=

USA.gov is the U.S. government's official web portal to all federal, state and local government web resources and services.